sensor_id;sensor_type;location;lat;lon;timestamp;P1;durP1;ratioP1;P2;durP2;ratioP2
64907;SDS011;69061;52.236;5.188;2023-05-20T00:01:49;10.98;;;6.22;;
64907;SDS011;69061;52.236;5.188;2023-05-20T00:04:16;12.05;;;6.43;;
64907;SDS011;69061;52.236;5.188;2023-05-20T00:06:42;15.60;;;6.68;;
64907;SDS011;69061;52.236;5.188;2023-05-20T00:09:09;12.63;;;6.13;;
64907;SDS011;69061;52.236;5.188;2023-05-20T00:11:36;14.75;;;7.28;;
64907;SDS011;69061;52.236;5.188;2023-05-20T00:14:06;16.08;;;8.02;;
64907;SDS011;69061;52.236;5.188;2023-05-20T00:16:33;13.27;;;6.22;;
64907;SDS011;69061;52.236;5.188;2023-05-20T00:18:59;14.68;;;7.05;;
64907;SDS011;69061;52.236;5.188;2023-05-20T00:21:26;19.73;;;6.80;;
64907;SDS011;69061;52.236;5.188;2023-05-20T00:23:53;14.05;;;6.10;;
64907;SDS011;69061;52.236;5.188;2023-05-20T00:26:20;12.23;;;7.53;;
64907;SDS011;69061;52.236;5.188;2023-05-20T00:28:47;14.45;;;7.00;;
64907;SDS011;69061;52.236;5.188;2023-05-20T00:31:14;15.85;;;6.57;;
64907;SDS011;69061;52.236;5.188;2023-05-20T00:33:41;15.55;;;8.73;;
64907;SDS011;69061;52.236;5.188;2023-05-20T00:36:08;13.57;;;6.80;;
64907;SDS011;69061;52.236;5.188;2023-05-20T00:38:34;14.55;;;7.00;;
64907;SDS011;69061;52.236;5.188;2023-05-20T00:41:01;15.00;;;6.68;;
64907;SDS011;69061;52.236;5.188;2023-05-20T00:43:27;15.85;;;7.68;;
64907;SDS011;69061;52.236;5.188;2023-05-20T00:45:54;15.65;;;7.18;;
64907;SDS011;69061;52.236;5.188;2023-05-20T00:48:22;12.25;;;7.13;;
64907;SDS011;69061;52.236;5.188;2023-05-20T00:50:49;11.65;;;6.53;;
64907;SDS011;69061;52.236;5.188;2023-05-20T00:53:15;14.77;;;7.32;;
64907;SDS011;69061;52.236;5.188;2023-05-20T00:55:43;17.42;;;8.15;;
64907;SDS011;69061;52.236;5.188;2023-05-20T00:58:10;18.60;;;7.93;;
64907;SDS011;69061;52.236;5.188;2023-05-20T01:00:37;14.07;;;7.03;;
64907;SDS011;69061;52.236;5.188;2023-05-20T01:03:04;11.13;;;6.80;;
64907;SDS011;69061;52.236;5.188;2023-05-20T01:05:32;14.50;;;7.15;;
64907;SDS011;69061;52.236;5.188;2023-05-20T01:07:58;15.15;;;7.78;;
64907;SDS011;69061;52.236;5.188;2023-05-20T01:10:26;12.13;;;7.55;;
64907;SDS011;69061;52.236;5.188;2023-05-20T01:12:56;17.52;;;6.90;;
64907;SDS011;69061;52.236;5.188;2023-05-20T01:15:25;10.95;;;6.75;;
64907;SDS011;69061;52.236;5.188;2023-05-20T01:17:54;15.98;;;7.88;;
64907;SDS011;69061;52.236;5.188;2023-05-20T01:20:25;15.77;;;7.57;;
64907;SDS011;69061;52.236;5.188;2023-05-20T01:22:55;14.15;;;7.28;;
64907;SDS011;69061;52.236;5.188;2023-05-20T01:25:22;13.60;;;7.43;;
64907;SDS011;69061;52.236;5.188;2023-05-20T01:27:50;16.90;;;7.75;;
64907;SDS011;69061;52.236;5.188;2023-05-20T01:30:18;15.50;;;6.88;;
64907;SDS011;69061;52.236;5.188;2023-05-20T01:32:47;17.85;;;8.48;;
64907;SDS011;69061;52.236;5.188;2023-05-20T01:35:16;12.02;;;8.00;;
64907;SDS011;69061;52.236;5.188;2023-05-20T01:37:43;12.55;;;7.68;;
64907;SDS011;69061;52.236;5.188;2023-05-20T01:40:13;13.70;;;6.80;;
64907;SDS011;69061;52.236;5.188;2023-05-20T01:42:42;12.38;;;6.63;;
64907;SDS011;69061;52.236;5.188;2023-05-20T01:45:10;20.50;;;8.18;;
64907;SDS011;69061;52.236;5.188;2023-05-20T01:47:36;14.20;;;7.43;;
64907;SDS011;69061;52.236;5.188;2023-05-20T01:50:03;15.75;;;7.43;;
64907;SDS011;69061;52.236;5.188;2023-05-20T01:52:31;18.83;;;7.07;;
64907;SDS011;69061;52.236;5.188;2023-05-20T01:54:58;18.60;;;7.28;;
64907;SDS011;69061;52.236;5.188;2023-05-20T01:57:26;14.48;;;7.50;;
64907;SDS011;69061;52.236;5.188;2023-05-20T01:59:53;14.07;;;7.65;;
64907;SDS011;69061;52.236;5.188;2023-05-20T02:02:19;16.73;;;7.30;;
64907;SDS011;69061;52.236;5.188;2023-05-20T02:04:47;13.95;;;6.97;;
64907;SDS011;69061;52.236;5.188;2023-05-20T02:07:16;13.30;;;7.07;;
64907;SDS011;69061;52.236;5.188;2023-05-20T02:09:44;12.07;;;7.00;;
64907;SDS011;69061;52.236;5.188;2023-05-20T02:12:11;12.98;;;7.00;;
64907;SDS011;69061;52.236;5.188;2023-05-20T02:14:42;15.02;;;6.85;;
64907;SDS011;69061;52.236;5.188;2023-05-20T02:17:09;13.07;;;7.43;;
64907;SDS011;69061;52.236;5.188;2023-05-20T02:19:35;11.50;;;6.88;;
64907;SDS011;69061;52.236;5.188;2023-05-20T02:22:02;18.75;;;7.75;;
64907;SDS011;69061;52.236;5.188;2023-05-20T02:24:29;11.57;;;7.05;;
64907;SDS011;69061;52.236;5.188;2023-05-20T02:26:55;10.77;;;6.45;;
64907;SDS011;69061;52.236;5.188;2023-05-20T02:29:23;17.42;;;7.68;;
64907;SDS011;69061;52.236;5.188;2023-05-20T02:31:50;13.18;;;6.82;;
64907;SDS011;69061;52.236;5.188;2023-05-20T02:34:17;11.52;;;6.60;;
64907;SDS011;69061;52.236;5.188;2023-05-20T02:36:44;13.82;;;7.15;;
64907;SDS011;69061;52.236;5.188;2023-05-20T02:39:10;11.98;;;7.65;;
64907;SDS011;69061;52.236;5.188;2023-05-20T02:41:37;13.75;;;6.55;;
64907;SDS011;69061;52.236;5.188;2023-05-20T02:44:04;13.75;;;7.95;;
64907;SDS011;69061;52.236;5.188;2023-05-20T02:46:31;14.80;;;7.60;;
64907;SDS011;69061;52.236;5.188;2023-05-20T02:48:59;11.35;;;7.13;;
64907;SDS011;69061;52.236;5.188;2023-05-20T02:51:26;11.15;;;6.82;;
64907;SDS011;69061;52.236;5.188;2023-05-20T02:53:52;11.73;;;6.15;;
64907;SDS011;69061;52.236;5.188;2023-05-20T02:56:19;17.23;;;6.40;;
64907;SDS011;69061;52.236;5.188;2023-05-20T02:58:46;10.40;;;6.28;;
64907;SDS011;69061;52.236;5.188;2023-05-20T03:01:13;13.48;;;6.57;;
64907;SDS011;69061;52.236;5.188;2023-05-20T03:03:39;12.80;;;7.15;;
64907;SDS011;69061;52.236;5.188;2023-05-20T03:06:07;15.35;;;7.60;;
64907;SDS011;69061;52.236;5.188;2023-05-20T03:08:34;12.63;;;6.90;;
64907;SDS011;69061;52.236;5.188;2023-05-20T03:11:00;11.73;;;6.57;;
64907;SDS011;69061;52.236;5.188;2023-05-20T03:13:27;14.30;;;8.35;;
64907;SDS011;69061;52.236;5.188;2023-05-20T03:15:54;12.95;;;7.07;;
64907;SDS011;69061;52.236;5.188;2023-05-20T03:18:20;10.15;;;6.55;;
64907;SDS011;69061;52.236;5.188;2023-05-20T03:20:47;10.85;;;6.82;;
64907;SDS011;69061;52.236;5.188;2023-05-20T03:23:15;10.73;;;6.75;;
64907;SDS011;69061;52.236;5.188;2023-05-20T03:25:42;12.15;;;6.60;;
64907;SDS011;69061;52.236;5.188;2023-05-20T03:28:08;17.20;;;7.40;;
64907;SDS011;69061;52.236;5.188;2023-05-20T03:30:35;16.10;;;7.13;;
64907;SDS011;69061;52.236;5.188;2023-05-20T03:33:01;11.50;;;5.97;;
64907;SDS011;69061;52.236;5.188;2023-05-20T03:35:29;13.60;;;6.63;;
64907;SDS011;69061;52.236;5.188;2023-05-20T03:37:56;11.05;;;6.03;;
64907;SDS011;69061;52.236;5.188;2023-05-20T03:40:27;14.63;;;6.93;;
64907;SDS011;69061;52.236;5.188;2023-05-20T03:42:54;14.82;;;7.57;;
64907;SDS011;69061;52.236;5.188;2023-05-20T03:45:21;13.85;;;7.07;;
64907;SDS011;69061;52.236;5.188;2023-05-20T03:47:47;16.08;;;7.10;;
64907;SDS011;69061;52.236;5.188;2023-05-20T03:50:14;14.20;;;7.53;;
64907;SDS011;69061;52.236;5.188;2023-05-20T03:52:41;15.07;;;8.02;;
64907;SDS011;69061;52.236;5.188;2023-05-20T03:55:08;17.90;;;7.97;;
64907;SDS011;69061;52.236;5.188;2023-05-20T03:57:36;16.50;;;7.53;;
64907;SDS011;69061;52.236;5.188;2023-05-20T04:00:03;15.18;;;7.60;;
64907;SDS011;69061;52.236;5.188;2023-05-20T04:02:36;12.68;;;7.30;;
64907;SDS011;69061;52.236;5.188;2023-05-20T04:05:03;18.73;;;7.75;;
64907;SDS011;69061;52.236;5.188;2023-05-20T04:07:32;15.13;;;7.03;;
64907;SDS011;69061;52.236;5.188;2023-05-20T04:09:59;14.77;;;7.15;;
64907;SDS011;69061;52.236;5.188;2023-05-20T04:12:26;15.48;;;7.13;;
64907;SDS011;69061;52.236;5.188;2023-05-20T04:14:56;14.07;;;7.45;;
64907;SDS011;69061;52.236;5.188;2023-05-20T04:17:25;13.48;;;7.13;;
64907;SDS011;69061;52.236;5.188;2023-05-20T04:19:54;18.08;;;7.47;;
64907;SDS011;69061;52.236;5.188;2023-05-20T04:22:20;16.05;;;6.90;;
64907;SDS011;69061;52.236;5.188;2023-05-20T04:24:47;11.40;;;7.45;;
64907;SDS011;69061;52.236;5.188;2023-05-20T04:27:13;10.65;;;6.75;;
64907;SDS011;69061;52.236;5.188;2023-05-20T04:29:40;14.02;;;7.13;;
64907;SDS011;69061;52.236;5.188;2023-05-20T04:32:12;14.90;;;6.47;;
64907;SDS011;69061;52.236;5.188;2023-05-20T04:34:38;11.80;;;6.70;;
64907;SDS011;69061;52.236;5.188;2023-05-20T04:37:05;14.13;;;6.95;;
64907;SDS011;69061;52.236;5.188;2023-05-20T04:39:33;18.75;;;7.30;;
64907;SDS011;69061;52.236;5.188;2023-05-20T04:42:00;13.52;;;7.53;;
64907;SDS011;69061;52.236;5.188;2023-05-20T04:44:27;16.98;;;7.25;;
64907;SDS011;69061;52.236;5.188;2023-05-20T04:46:54;16.90;;;7.03;;
64907;SDS011;69061;52.236;5.188;2023-05-20T04:49:23;15.27;;;6.72;;
64907;SDS011;69061;52.236;5.188;2023-05-20T04:51:50;13.70;;;7.00;;
64907;SDS011;69061;52.236;5.188;2023-05-20T04:54:19;13.25;;;6.75;;
64907;SDS011;69061;52.236;5.188;2023-05-20T04:56:46;15.13;;;6.50;;
64907;SDS011;69061;52.236;5.188;2023-05-20T04:59:12;16.70;;;7.28;;
64907;SDS011;69061;52.236;5.188;2023-05-20T05:01:39;12.73;;;6.30;;
64907;SDS011;69061;52.236;5.188;2023-05-20T05:04:05;13.35;;;7.60;;
64907;SDS011;69061;52.236;5.188;2023-05-20T05:06:33;12.82;;;7.07;;
64907;SDS011;69061;52.236;5.188;2023-05-20T05:09:00;14.00;;;7.20;;
64907;SDS011;69061;52.236;5.188;2023-05-20T05:11:26;10.25;;;6.55;;
64907;SDS011;69061;52.236;5.188;2023-05-20T05:13:53;11.13;;;6.60;;
64907;SDS011;69061;52.236;5.188;2023-05-20T05:16:20;10.40;;;6.50;;
64907;SDS011;69061;52.236;5.188;2023-05-20T05:18:47;12.23;;;7.07;;
64907;SDS011;69061;52.236;5.188;2023-05-20T05:21:13;12.57;;;6.80;;
64907;SDS011;69061;52.236;5.188;2023-05-20T05:23:41;13.23;;;6.25;;
64907;SDS011;69061;52.236;5.188;2023-05-20T05:26:08;12.98;;;6.60;;
64907;SDS011;69061;52.236;5.188;2023-05-20T05:28:34;14.82;;;6.80;;
64907;SDS011;69061;52.236;5.188;2023-05-20T05:31:01;12.65;;;6.55;;
64907;SDS011;69061;52.236;5.188;2023-05-20T05:33:29;14.35;;;6.70;;
64907;SDS011;69061;52.236;5.188;2023-05-20T05:35:56;12.30;;;6.88;;
64907;SDS011;69061;52.236;5.188;2023-05-20T05:38:23;12.45;;;7.28;;
64907;SDS011;69061;52.236;5.188;2023-05-20T05:40:51;8.98;;;5.85;;
64907;SDS011;69061;52.236;5.188;2023-05-20T05:43:18;13.90;;;6.57;;
64907;SDS011;69061;52.236;5.188;2023-05-20T05:45:44;14.18;;;6.65;;
64907;SDS011;69061;52.236;5.188;2023-05-20T05:48:11;9.60;;;5.90;;
64907;SDS011;69061;52.236;5.188;2023-05-20T05:50:38;9.73;;;5.80;;
64907;SDS011;69061;52.236;5.188;2023-05-20T05:53:08;14.75;;;7.03;;
64907;SDS011;69061;52.236;5.188;2023-05-20T05:55:35;11.27;;;6.38;;
64907;SDS011;69061;52.236;5.188;2023-05-20T05:58:03;9.65;;;6.25;;
64907;SDS011;69061;52.236;5.188;2023-05-20T06:00:29;11.25;;;6.35;;
64907;SDS011;69061;52.236;5.188;2023-05-20T06:02:56;10.70;;;6.43;;
64907;SDS011;69061;52.236;5.188;2023-05-20T06:05:23;12.40;;;5.90;;
64907;SDS011;69061;52.236;5.188;2023-05-20T06:07:50;15.85;;;6.63;;
64907;SDS011;69061;52.236;5.188;2023-05-20T06:10:16;12.90;;;7.30;;
64907;SDS011;69061;52.236;5.188;2023-05-20T06:12:43;12.23;;;6.25;;
64907;SDS011;69061;52.236;5.188;2023-05-20T06:15:11;10.70;;;7.10;;
64907;SDS011;69061;52.236;5.188;2023-05-20T06:17:38;11.88;;;6.35;;
64907;SDS011;69061;52.236;5.188;2023-05-20T06:20:05;9.18;;;6.32;;
64907;SDS011;69061;52.236;5.188;2023-05-20T06:22:32;13.30;;;6.70;;
64907;SDS011;69061;52.236;5.188;2023-05-20T06:24:59;12.15;;;6.93;;
64907;SDS011;69061;52.236;5.188;2023-05-20T06:27:26;11.18;;;7.10;;
64907;SDS011;69061;52.236;5.188;2023-05-20T06:29:53;8.82;;;6.53;;
64907;SDS011;69061;52.236;5.188;2023-05-20T06:32:21;10.25;;;6.28;;
64907;SDS011;69061;52.236;5.188;2023-05-20T06:34:48;12.63;;;6.45;;
64907;SDS011;69061;52.236;5.188;2023-05-20T06:37:14;10.63;;;6.15;;
64907;SDS011;69061;52.236;5.188;2023-05-20T06:39:41;12.45;;;6.32;;
64907;SDS011;69061;52.236;5.188;2023-05-20T06:42:07;9.73;;;5.95;;
64907;SDS011;69061;52.236;5.188;2023-05-20T06:44:34;12.27;;;7.03;;
64907;SDS011;69061;52.236;5.188;2023-05-20T06:47:00;10.50;;;6.05;;
64907;SDS011;69061;52.236;5.188;2023-05-20T06:49:28;12.80;;;7.03;;
64907;SDS011;69061;52.236;5.188;2023-05-20T06:51:55;11.23;;;6.60;;
64907;SDS011;69061;52.236;5.188;2023-05-20T06:54:21;11.70;;;6.57;;
64907;SDS011;69061;52.236;5.188;2023-05-20T06:56:48;7.43;;;5.90;;
64907;SDS011;69061;52.236;5.188;2023-05-20T06:59:15;10.40;;;5.75;;
64907;SDS011;69061;52.236;5.188;2023-05-20T07:01:41;14.55;;;7.05;;
64907;SDS011;69061;52.236;5.188;2023-05-20T07:04:08;9.85;;;6.35;;
64907;SDS011;69061;52.236;5.188;2023-05-20T07:06:36;9.05;;;6.10;;
64907;SDS011;69061;52.236;5.188;2023-05-20T07:09:02;10.98;;;6.43;;
64907;SDS011;69061;52.236;5.188;2023-05-20T07:11:29;10.23;;;5.35;;
64907;SDS011;69061;52.236;5.188;2023-05-20T07:13:55;10.20;;;5.65;;
64907;SDS011;69061;52.236;5.188;2023-05-20T07:16:22;10.77;;;6.50;;
64907;SDS011;69061;52.236;5.188;2023-05-20T07:18:49;10.40;;;5.88;;
64907;SDS011;69061;52.236;5.188;2023-05-20T07:21:15;9.07;;;5.63;;
64907;SDS011;69061;52.236;5.188;2023-05-20T07:23:43;10.70;;;5.47;;
64907;SDS011;69061;52.236;5.188;2023-05-20T07:26:10;10.30;;;5.35;;
64907;SDS011;69061;52.236;5.188;2023-05-20T07:28:37;8.15;;;5.60;;
64907;SDS011;69061;52.236;5.188;2023-05-20T07:31:04;11.48;;;6.28;;
64907;SDS011;69061;52.236;5.188;2023-05-20T07:33:31;11.35;;;5.55;;
64907;SDS011;69061;52.236;5.188;2023-05-20T07:35:57;9.23;;;5.95;;
64907;SDS011;69061;52.236;5.188;2023-05-20T07:38:24;13.20;;;5.97;;
64907;SDS011;69061;52.236;5.188;2023-05-20T07:40:52;8.73;;;5.43;;
64907;SDS011;69061;52.236;5.188;2023-05-20T07:43:18;9.35;;;5.10;;
64907;SDS011;69061;52.236;5.188;2023-05-20T07:45:45;10.13;;;5.70;;
64907;SDS011;69061;52.236;5.188;2023-05-20T07:48:12;10.77;;;5.40;;
64907;SDS011;69061;52.236;5.188;2023-05-20T07:50:39;12.95;;;6.20;;
64907;SDS011;69061;52.236;5.188;2023-05-20T07:53:05;11.15;;;6.03;;
64907;SDS011;69061;52.236;5.188;2023-05-20T07:55:32;8.75;;;5.25;;
64907;SDS011;69061;52.236;5.188;2023-05-20T07:58:00;7.88;;;5.43;;
64907;SDS011;69061;52.236;5.188;2023-05-20T08:00:27;9.38;;;5.63;;
64907;SDS011;69061;52.236;5.188;2023-05-20T08:02:54;9.95;;;5.25;;
64907;SDS011;69061;52.236;5.188;2023-05-20T08:05:20;7.80;;;5.22;;
64907;SDS011;69061;52.236;5.188;2023-05-20T08:07:47;6.70;;;4.85;;
64907;SDS011;69061;52.236;5.188;2023-05-20T08:10:13;11.38;;;4.43;;
64907;SDS011;69061;52.236;5.188;2023-05-20T08:12:40;9.82;;;5.10;;
64907;SDS011;69061;52.236;5.188;2023-05-20T08:15:09;8.57;;;4.68;;
64907;SDS011;69061;52.236;5.188;2023-05-20T08:17:36;7.00;;;5.32;;
64907;SDS011;69061;52.236;5.188;2023-05-20T08:20:03;8.07;;;5.18;;
64907;SDS011;69061;52.236;5.188;2023-05-20T08:22:32;8.98;;;5.20;;
64907;SDS011;69061;52.236;5.188;2023-05-20T08:24:58;8.77;;;4.88;;
64907;SDS011;69061;52.236;5.188;2023-05-20T08:27:25;7.47;;;4.82;;
64907;SDS011;69061;52.236;5.188;2023-05-20T08:29:51;8.00;;;4.50;;
64907;SDS011;69061;52.236;5.188;2023-05-20T08:32:19;7.05;;;5.20;;
64907;SDS011;69061;52.236;5.188;2023-05-20T08:34:46;8.13;;;4.45;;
64907;SDS011;69061;52.236;5.188;2023-05-20T08:37:13;7.72;;;4.13;;
64907;SDS011;69061;52.236;5.188;2023-05-20T08:39:40;11.05;;;5.18;;
64907;SDS011;69061;52.236;5.188;2023-05-20T08:42:07;8.43;;;4.85;;
64907;SDS011;69061;52.236;5.188;2023-05-20T08:44:35;7.80;;;4.82;;
64907;SDS011;69061;52.236;5.188;2023-05-20T08:47:05;8.77;;;5.40;;
64907;SDS011;69061;52.236;5.188;2023-05-20T08:49:34;7.93;;;4.60;;
64907;SDS011;69061;52.236;5.188;2023-05-20T08:52:01;11.57;;;4.82;;
64907;SDS011;69061;52.236;5.188;2023-05-20T08:54:32;7.22;;;4.20;;
64907;SDS011;69061;52.236;5.188;2023-05-20T08:57:08;6.88;;;4.00;;
64907;SDS011;69061;52.236;5.188;2023-05-20T08:59:38;7.25;;;4.30;;
64907;SDS011;69061;52.236;5.188;2023-05-20T09:02:07;5.60;;;3.80;;
64907;SDS011;69061;52.236;5.188;2023-05-20T09:04:35;17.25;;;4.60;;
64907;SDS011;69061;52.236;5.188;2023-05-20T09:07:02;5.03;;;3.45;;
64907;SDS011;69061;52.236;5.188;2023-05-20T09:09:31;6.97;;;4.40;;
64907;SDS011;69061;52.236;5.188;2023-05-20T09:11:58;13.00;;;4.57;;
64907;SDS011;69061;52.236;5.188;2023-05-20T09:14:27;7.95;;;4.13;;
64907;SDS011;69061;52.236;5.188;2023-05-20T09:16:53;7.32;;;4.13;;
64907;SDS011;69061;52.236;5.188;2023-05-20T09:19:20;6.90;;;3.90;;
64907;SDS011;69061;52.236;5.188;2023-05-20T09:21:49;6.18;;;3.60;;
64907;SDS011;69061;52.236;5.188;2023-05-20T09:24:19;6.00;;;3.70;;
64907;SDS011;69061;52.236;5.188;2023-05-20T09:26:48;13.70;;;4.00;;
64907;SDS011;69061;52.236;5.188;2023-05-20T09:29:14;7.60;;;4.00;;
64907;SDS011;69061;52.236;5.188;2023-05-20T09:31:41;8.45;;;4.95;;
64907;SDS011;69061;52.236;5.188;2023-05-20T09:34:08;5.35;;;3.53;;
64907;SDS011;69061;52.236;5.188;2023-05-20T09:36:36;4.90;;;3.50;;
64907;SDS011;69061;52.236;5.188;2023-05-20T09:39:07;8.30;;;3.95;;
64907;SDS011;69061;52.236;5.188;2023-05-20T09:41:38;7.30;;;4.00;;
64907;SDS011;69061;52.236;5.188;2023-05-20T09:44:10;8.10;;;3.83;;
64907;SDS011;69061;52.236;5.188;2023-05-20T09:46:38;7.15;;;4.00;;
64907;SDS011;69061;52.236;5.188;2023-05-20T09:49:06;7.43;;;4.10;;
64907;SDS011;69061;52.236;5.188;2023-05-20T09:51:34;5.57;;;3.55;;
64907;SDS011;69061;52.236;5.188;2023-05-20T09:54:00;5.30;;;3.80;;
64907;SDS011;69061;52.236;5.188;2023-05-20T09:56:30;14.15;;;4.38;;
64907;SDS011;69061;52.236;5.188;2023-05-20T09:58:58;6.13;;;3.72;;
64907;SDS011;69061;52.236;5.188;2023-05-20T10:01:26;9.55;;;3.65;;
64907;SDS011;69061;52.236;5.188;2023-05-20T10:03:53;7.82;;;4.50;;
64907;SDS011;69061;52.236;5.188;2023-05-20T10:06:31;6.47;;;3.65;;
64907;SDS011;69061;52.236;5.188;2023-05-20T10:09:23;8.57;;;4.15;;
64907;SDS011;69061;52.236;5.188;2023-05-20T10:12:06;5.20;;;4.00;;
64907;SDS011;69061;52.236;5.188;2023-05-20T10:14:42;8.73;;;4.43;;
64907;SDS011;69061;52.236;5.188;2023-05-20T10:17:24;9.30;;;3.85;;
64907;SDS011;69061;52.236;5.188;2023-05-20T10:19:58;6.10;;;4.10;;
64907;SDS011;69061;52.236;5.188;2023-05-20T10:22:26;5.90;;;3.80;;
64907;SDS011;69061;52.236;5.188;2023-05-20T10:24:57;6.20;;;3.88;;
64907;SDS011;69061;52.236;5.188;2023-05-20T10:27:25;7.20;;;3.85;;
64907;SDS011;69061;52.236;5.188;2023-05-20T10:29:53;7.57;;;4.18;;
64907;SDS011;69061;52.236;5.188;2023-05-20T10:32:24;6.97;;;3.85;;
64907;SDS011;69061;52.236;5.188;2023-05-20T10:34:52;5.30;;;3.78;;
64907;SDS011;69061;52.236;5.188;2023-05-20T10:37:25;5.68;;;3.83;;
64907;SDS011;69061;52.236;5.188;2023-05-20T10:40:01;5.97;;;4.07;;
64907;SDS011;69061;52.236;5.188;2023-05-20T10:42:32;5.70;;;3.83;;
64907;SDS011;69061;52.236;5.188;2023-05-20T10:44:58;6.22;;;3.80;;
64907;SDS011;69061;52.236;5.188;2023-05-20T10:47:25;9.52;;;3.72;;
64907;SDS011;69061;52.236;5.188;2023-05-20T10:49:51;8.68;;;4.10;;
64907;SDS011;69061;52.236;5.188;2023-05-20T10:52:18;7.53;;;4.13;;
64907;SDS011;69061;52.236;5.188;2023-05-20T10:54:45;6.57;;;4.13;;
64907;SDS011;69061;52.236;5.188;2023-05-20T10:57:13;6.53;;;4.30;;
64907;SDS011;69061;52.236;5.188;2023-05-20T10:59:41;5.22;;;3.80;;
64907;SDS011;69061;52.236;5.188;2023-05-20T11:02:08;7.28;;;4.57;;
64907;SDS011;69061;52.236;5.188;2023-05-20T11:04:36;7.20;;;4.30;;
64907;SDS011;69061;52.236;5.188;2023-05-20T11:07:04;4.63;;;3.45;;
64907;SDS011;69061;52.236;5.188;2023-05-20T11:09:31;7.35;;;3.53;;
64907;SDS011;69061;52.236;5.188;2023-05-20T11:11:58;4.78;;;3.75;;
64907;SDS011;69061;52.236;5.188;2023-05-20T11:14:26;9.05;;;3.95;;
64907;SDS011;69061;52.236;5.188;2023-05-20T11:16:56;7.32;;;4.18;;
64907;SDS011;69061;52.236;5.188;2023-05-20T11:19:23;7.15;;;3.97;;
64907;SDS011;69061;52.236;5.188;2023-05-20T11:21:51;5.10;;;3.53;;
64907;SDS011;69061;52.236;5.188;2023-05-20T11:24:22;7.47;;;3.70;;
64907;SDS011;69061;52.236;5.188;2023-05-20T11:26:50;6.60;;;4.07;;
64907;SDS011;69061;52.236;5.188;2023-05-20T11:29:17;5.97;;;3.97;;
64907;SDS011;69061;52.236;5.188;2023-05-20T11:31:46;6.28;;;4.20;;
64907;SDS011;69061;52.236;5.188;2023-05-20T11:34:16;6.55;;;3.92;;
64907;SDS011;69061;52.236;5.188;2023-05-20T11:36:45;7.95;;;4.07;;
64907;SDS011;69061;52.236;5.188;2023-05-20T11:39:12;6.50;;;4.10;;
64907;SDS011;69061;52.236;5.188;2023-05-20T11:41:40;8.07;;;3.80;;
64907;SDS011;69061;52.236;5.188;2023-05-20T11:44:08;4.65;;;3.92;;
64907;SDS011;69061;52.236;5.188;2023-05-20T11:46:39;8.52;;;4.57;;
64907;SDS011;69061;52.236;5.188;2023-05-20T11:49:07;6.30;;;3.40;;
64907;SDS011;69061;52.236;5.188;2023-05-20T11:51:35;7.60;;;4.40;;
64907;SDS011;69061;52.236;5.188;2023-05-20T11:54:03;7.22;;;3.70;;
64907;SDS011;69061;52.236;5.188;2023-05-20T11:56:32;5.90;;;3.63;;
64907;SDS011;69061;52.236;5.188;2023-05-20T11:59:00;6.90;;;4.03;;
64907;SDS011;69061;52.236;5.188;2023-05-20T12:01:28;8.45;;;4.13;;
64907;SDS011;69061;52.236;5.188;2023-05-20T12:03:55;4.80;;;3.45;;
64907;SDS011;69061;52.236;5.188;2023-05-20T12:06:22;7.93;;;3.85;;
64907;SDS011;69061;52.236;5.188;2023-05-20T12:08:50;9.45;;;3.63;;
64907;SDS011;69061;52.236;5.188;2023-05-20T12:11:17;7.65;;;3.85;;
64907;SDS011;69061;52.236;5.188;2023-05-20T12:13:43;5.65;;;3.78;;
64907;SDS011;69061;52.236;5.188;2023-05-20T12:16:10;5.38;;;3.40;;
64907;SDS011;69061;52.236;5.188;2023-05-20T12:18:37;6.95;;;3.78;;
64907;SDS011;69061;52.236;5.188;2023-05-20T12:21:03;7.70;;;3.90;;
64907;SDS011;69061;52.236;5.188;2023-05-20T12:23:30;7.07;;;4.18;;
64907;SDS011;69061;52.236;5.188;2023-05-20T12:25:59;5.85;;;3.65;;
64907;SDS011;69061;52.236;5.188;2023-05-20T12:28:26;6.38;;;3.90;;
64907;SDS011;69061;52.236;5.188;2023-05-20T12:30:52;8.50;;;3.90;;
64907;SDS011;69061;52.236;5.188;2023-05-20T12:33:19;7.65;;;3.92;;
64907;SDS011;69061;52.236;5.188;2023-05-20T12:35:46;6.75;;;4.40;;
64907;SDS011;69061;52.236;5.188;2023-05-20T12:38:12;7.50;;;3.45;;
64907;SDS011;69061;52.236;5.188;2023-05-20T12:40:39;5.47;;;3.47;;
64907;SDS011;69061;52.236;5.188;2023-05-20T12:43:07;5.28;;;3.65;;
64907;SDS011;69061;52.236;5.188;2023-05-20T12:45:34;7.15;;;4.05;;
64907;SDS011;69061;52.236;5.188;2023-05-20T12:48:00;5.60;;;3.47;;
64907;SDS011;69061;52.236;5.188;2023-05-20T12:50:27;5.32;;;3.50;;
64907;SDS011;69061;52.236;5.188;2023-05-20T12:52:53;6.88;;;4.07;;
64907;SDS011;69061;52.236;5.188;2023-05-20T12:55:20;9.10;;;3.90;;
64907;SDS011;69061;52.236;5.188;2023-05-20T12:57:47;6.47;;;3.55;;
64907;SDS011;69061;52.236;5.188;2023-05-20T13:00:16;13.48;;;3.45;;
64907;SDS011;69061;52.236;5.188;2023-05-20T13:02:43;6.95;;;3.50;;
64907;SDS011;69061;52.236;5.188;2023-05-20T13:05:09;9.50;;;3.85;;
64907;SDS011;69061;52.236;5.188;2023-05-20T13:07:36;5.68;;;3.67;;
64907;SDS011;69061;52.236;5.188;2023-05-20T13:10:04;9.32;;;4.13;;
64907;SDS011;69061;52.236;5.188;2023-05-20T13:12:32;5.20;;;3.50;;
64907;SDS011;69061;52.236;5.188;2023-05-20T13:14:59;7.35;;;3.78;;
64907;SDS011;69061;52.236;5.188;2023-05-20T13:17:27;8.95;;;3.50;;
64907;SDS011;69061;52.236;5.188;2023-05-20T13:19:53;9.10;;;3.90;;
64907;SDS011;69061;52.236;5.188;2023-05-20T13:22:20;5.18;;;3.88;;
64907;SDS011;69061;52.236;5.188;2023-05-20T13:24:47;7.93;;;3.65;;
64907;SDS011;69061;52.236;5.188;2023-05-20T13:27:13;5.82;;;3.67;;
64907;SDS011;69061;52.236;5.188;2023-05-20T13:29:40;5.75;;;3.42;;
64907;SDS011;69061;52.236;5.188;2023-05-20T13:32:07;8.65;;;3.78;;
64907;SDS011;69061;52.236;5.188;2023-05-20T13:34:35;6.85;;;3.40;;
64907;SDS011;69061;52.236;5.188;2023-05-20T13:37:02;6.30;;;3.90;;
64907;SDS011;69061;52.236;5.188;2023-05-20T13:39:29;5.70;;;3.42;;
64907;SDS011;69061;52.236;5.188;2023-05-20T13:41:56;6.20;;;3.50;;
64907;SDS011;69061;52.236;5.188;2023-05-20T13:44:23;7.32;;;3.67;;
64907;SDS011;69061;52.236;5.188;2023-05-20T13:46:50;7.30;;;3.63;;
64907;SDS011;69061;52.236;5.188;2023-05-20T13:49:16;4.90;;;3.80;;
64907;SDS011;69061;52.236;5.188;2023-05-20T13:51:44;6.72;;;3.83;;
64907;SDS011;69061;52.236;5.188;2023-05-20T13:54:11;10.73;;;3.58;;
64907;SDS011;69061;52.236;5.188;2023-05-20T13:56:37;6.28;;;3.70;;
64907;SDS011;69061;52.236;5.188;2023-05-20T13:59:04;7.07;;;3.53;;
64907;SDS011;69061;52.236;5.188;2023-05-20T14:01:31;6.50;;;4.00;;
64907;SDS011;69061;52.236;5.188;2023-05-20T14:03:58;13.30;;;3.38;;
64907;SDS011;69061;52.236;5.188;2023-05-20T14:06:25;14.02;;;4.10;;
64907;SDS011;69061;52.236;5.188;2023-05-20T14:08:55;6.32;;;3.30;;
64907;SDS011;69061;52.236;5.188;2023-05-20T14:11:22;6.80;;;3.80;;
64907;SDS011;69061;52.236;5.188;2023-05-20T14:13:48;8.82;;;3.58;;
64907;SDS011;69061;52.236;5.188;2023-05-20T14:16:15;5.13;;;3.47;;
64907;SDS011;69061;52.236;5.188;2023-05-20T14:18:41;50.70;;;6.20;;
64907;SDS011;69061;52.236;5.188;2023-05-20T14:21:08;6.32;;;3.60;;
64907;SDS011;69061;52.236;5.188;2023-05-20T14:23:36;8.63;;;4.00;;
64907;SDS011;69061;52.236;5.188;2023-05-20T14:26:06;6.10;;;3.40;;
64907;SDS011;69061;52.236;5.188;2023-05-20T14:28:32;5.75;;;3.65;;
64907;SDS011;69061;52.236;5.188;2023-05-20T14:30:59;5.75;;;3.80;;
64907;SDS011;69061;52.236;5.188;2023-05-20T14:33:26;12.63;;;3.97;;
64907;SDS011;69061;52.236;5.188;2023-05-20T14:35:52;7.00;;;3.65;;
64907;SDS011;69061;52.236;5.188;2023-05-20T14:38:19;5.32;;;3.47;;
64907;SDS011;69061;52.236;5.188;2023-05-20T14:40:46;5.95;;;3.38;;
64907;SDS011;69061;52.236;5.188;2023-05-20T14:43:14;5.55;;;3.80;;